createdAt,value
2022-10-31T00:02:04.775Z,11.74
2022-10-31T00:04:34.301Z,11.75
2022-10-31T00:07:03.769Z,11.72
2022-10-31T00:09:33.279Z,11.62
2022-10-31T00:12:02.757Z,11.63
2022-10-31T00:14:34.908Z,11.63
2022-10-31T00:17:04.421Z,11.61
2022-10-31T00:19:33.954Z,11.59
2022-10-31T00:22:03.455Z,11.63
2022-10-31T00:24:33.018Z,11.56
2022-10-31T00:27:02.495Z,11.55
2022-10-31T00:29:32.056Z,11.54
2022-10-31T00:32:04.048Z,11.58
2022-10-31T00:34:33.572Z,11.57
2022-10-31T00:37:03.098Z,11.56
2022-10-31T00:39:32.577Z,11.54
2022-10-31T00:42:02.055Z,11.56
2022-10-31T00:44:31.615Z,11.50
2022-10-31T00:47:03.708Z,11.53
2022-10-31T00:49:33.133Z,11.55
2022-10-31T00:52:02.620Z,11.65
2022-10-31T00:54:32.155Z,11.56
2022-10-31T00:57:01.953Z,11.53
2022-10-31T00:59:31.529Z,11.44
2022-10-31T01:02:01.193Z,11.36
2022-10-31T01:04:33.413Z,11.44
2022-10-31T01:07:02.895Z,11.44
2022-10-31T01:09:34.337Z,11.44
2022-10-31T01:12:03.831Z,11.44
2022-10-31T01:14:34.905Z,11.41
2022-10-31T01:17:04.384Z,11.42
2022-10-31T01:19:36.664Z,11.46
2022-10-31T01:22:06.173Z,11.47
2022-10-31T01:24:35.741Z,11.44
2022-10-31T01:27:05.492Z,11.52
2022-10-31T01:29:34.980Z,11.54
2022-10-31T01:32:04.473Z,11.51
2022-10-31T01:34:36.739Z,11.56
2022-10-31T01:37:06.334Z,11.57
2022-10-31T01:39:35.871Z,11.53
2022-10-31T01:42:05.548Z,11.53
2022-10-31T01:44:54.944Z,11.53
2022-10-31T01:47:30.596Z,11.59
2022-10-31T01:50:04.547Z,11.55
2022-10-31T01:52:37.033Z,11.53
2022-10-31T01:55:08.997Z,11.52
2022-10-31T01:57:39.280Z,11.52
2022-10-31T02:00:11.860Z,11.51
2022-10-31T02:02:41.713Z,11.51
2022-10-31T02:05:16.631Z,11.48
2022-10-31T02:07:48.225Z,11.45
2022-10-31T02:10:17.719Z,11.44
2022-10-31T02:12:48.456Z,11.47
2022-10-31T02:15:17.947Z,11.47
2022-10-31T02:17:47.552Z,11.47
2022-10-31T02:20:22.406Z,11.42
2022-10-31T02:23:27.636Z,11.44
2022-10-31T02:26:11.672Z,11.46
2022-10-31T02:28:54.082Z,11.46
2022-10-31T02:31:37.209Z,11.45
2022-10-31T02:34:14.832Z,11.44
2022-10-31T02:36:48.308Z,11.46
2022-10-31T02:39:24.662Z,11.47
2022-10-31T02:41:59.952Z,11.47
2022-10-31T02:44:33.269Z,11.47
2022-10-31T02:47:07.585Z,11.47
2022-10-31T02:49:40.536Z,11.46
2022-10-31T02:52:18.328Z,11.46
2022-10-31T02:54:48.397Z,11.42
2022-10-31T02:57:20.671Z,11.42
2022-10-31T02:59:52.877Z,11.41
2022-10-31T03:02:35.091Z,11.35
2022-10-31T03:05:23.152Z,11.36
2022-10-31T03:07:58.848Z,11.37
2022-10-31T03:10:36.740Z,11.35
2022-10-31T03:13:13.312Z,11.32
2022-10-31T03:15:45.567Z,11.37
2022-10-31T03:18:20.369Z,11.34
2022-10-31T03:20:53.176Z,11.30
2022-10-31T03:23:23.698Z,11.30
2022-10-31T03:25:54.745Z,11.32
2022-10-31T03:28:27.856Z,11.28
2022-10-31T03:30:57.548Z,11.26
2022-10-31T03:33:32.089Z,11.26
2022-10-31T03:36:03.503Z,11.23
2022-10-31T03:38:33.467Z,11.26
2022-10-31T03:41:04.354Z,11.29
2022-10-31T03:43:36.897Z,11.28
2022-10-31T03:46:06.673Z,11.30
2022-10-31T03:48:38.829Z,11.28
2022-10-31T03:51:11.558Z,11.25
2022-10-31T03:53:43.634Z,11.39
2022-10-31T03:56:16.476Z,11.41
2022-10-31T03:58:49.182Z,11.31
2022-10-31T04:01:20.798Z,11.26
2022-10-31T04:03:53.414Z,11.24
2022-10-31T04:06:25.447Z,11.18
2022-10-31T04:08:57.013Z,11.16
2022-10-31T04:11:31.176Z,11.19
2022-10-31T04:14:01.327Z,11.16
2022-10-31T04:16:30.844Z,11.23
2022-10-31T04:19:02.908Z,11.27
2022-10-31T04:21:33.172Z,11.32
2022-10-31T04:24:02.678Z,11.36
2022-10-31T04:26:32.120Z,11.38
2022-10-31T04:29:01.556Z,11.39
2022-10-31T04:31:31.240Z,11.38
2022-10-31T04:34:03.204Z,11.42
2022-10-31T04:36:32.661Z,11.50
2022-10-31T04:39:02.127Z,11.41
2022-10-31T04:41:31.645Z,11.44
2022-10-31T04:44:01.137Z,11.50
2022-10-31T04:46:30.967Z,11.51
2022-10-31T04:49:03.064Z,11.51
2022-10-31T04:51:32.524Z,11.53
2022-10-31T04:54:02.044Z,11.51
2022-10-31T04:56:31.544Z,11.56
2022-10-31T04:59:01.034Z,11.56
2022-10-31T05:01:30.839Z,11.57
2022-10-31T05:04:02.943Z,11.51
2022-10-31T05:06:32.437Z,11.57
2022-10-31T05:09:01.940Z,11.48
2022-10-31T05:11:31.430Z,11.50
2022-10-31T05:14:00.875Z,11.48
2022-10-31T05:16:30.356Z,11.56
2022-10-31T05:19:00.028Z,11.57
2022-10-31T05:21:32.065Z,11.55
2022-10-31T05:24:01.533Z,11.56
2022-10-31T05:26:31.040Z,11.51
2022-10-31T05:29:00.538Z,11.53
2022-10-31T05:31:30.068Z,11.57
2022-10-31T05:33:59.913Z,11.51
2022-10-31T05:36:31.977Z,11.52
2022-10-31T05:39:01.616Z,11.46
2022-10-31T05:41:31.062Z,11.56
2022-10-31T05:44:00.574Z,11.50
2022-10-31T05:46:30.081Z,11.45
2022-10-31T05:49:02.481Z,11.39
2022-10-31T05:51:34.812Z,11.49
2022-10-31T05:54:04.335Z,11.47
2022-10-31T05:56:33.812Z,11.66
2022-10-31T05:59:03.199Z,11.58
2022-10-31T06:01:32.721Z,11.57
2022-10-31T06:04:02.222Z,11.61
2022-10-31T06:06:34.209Z,11.50
2022-10-31T06:09:03.761Z,11.46
2022-10-31T06:11:33.263Z,11.46
2022-10-31T06:14:02.853Z,11.41
2022-10-31T06:16:32.288Z,11.41
2022-10-31T06:19:01.707Z,11.39
2022-10-31T06:21:33.743Z,11.37
2022-10-31T06:24:03.173Z,11.32
2022-10-31T06:26:32.616Z,11.33
2022-10-31T06:29:03.916Z,11.51
2022-10-31T06:31:33.930Z,11.53
2022-10-31T06:34:03.381Z,11.49
2022-10-31T06:36:35.455Z,11.44
2022-10-31T06:39:04.959Z,11.41
2022-10-31T06:41:34.427Z,11.41
2022-10-31T06:44:06.533Z,11.45
2022-10-31T06:46:38.383Z,11.44
2022-10-31T06:49:07.887Z,11.53
2022-10-31T06:51:40.000Z,11.52
2022-10-31T06:54:09.547Z,11.68
2022-10-31T06:56:38.984Z,11.67
2022-10-31T06:59:08.533Z,11.63
2022-10-31T07:01:38.043Z,11.65
2022-10-31T07:04:07.791Z,11.57
2022-10-31T07:06:39.908Z,11.60
2022-10-31T07:09:09.403Z,11.53
2022-10-31T07:11:38.874Z,11.52
2022-10-31T07:14:08.453Z,11.52
2022-10-31T07:16:37.853Z,11.47
2022-10-31T07:19:07.304Z,11.46
2022-10-31T07:21:36.819Z,11.43
2022-10-31T07:24:09.154Z,11.41
2022-10-31T07:26:38.676Z,11.38
2022-10-31T07:29:08.334Z,11.38
2022-10-31T07:31:37.755Z,11.44
2022-10-31T07:34:07.202Z,11.42
2022-10-31T07:36:36.656Z,11.37
2022-10-31T07:39:08.639Z,11.43
2022-10-31T07:41:38.041Z,11.47
2022-10-31T07:44:07.979Z,11.47
2022-10-31T07:46:37.484Z,11.48
2022-10-31T07:49:07.859Z,11.47
2022-10-31T07:51:37.301Z,11.44
2022-10-31T07:54:09.384Z,11.48
2022-10-31T07:56:38.875Z,11.39
2022-10-31T07:59:08.404Z,11.38
2022-10-31T08:01:37.892Z,11.35
2022-10-31T08:04:07.590Z,11.33
2022-10-31T08:06:37.096Z,11.26
2022-10-31T08:09:09.225Z,11.27
2022-10-31T08:11:38.692Z,11.37
2022-10-31T08:14:08.640Z,11.47
2022-10-31T08:16:38.115Z,11.47
2022-10-31T08:19:07.607Z,11.54
2022-10-31T08:21:37.109Z,12.02
2022-10-31T08:24:09.788Z,12.54
2022-10-31T08:26:39.290Z,12.54
2022-10-31T08:29:08.709Z,12.70
2022-10-31T08:31:41.887Z,12.58
2022-10-31T08:34:12.507Z,12.64
2022-10-31T08:36:43.299Z,12.35
2022-10-31T08:39:15.372Z,12.12
2022-10-31T08:41:44.861Z,11.98
2022-10-31T08:44:14.319Z,12.09
2022-10-31T08:46:43.747Z,12.20
2022-10-31T08:49:13.240Z,12.12
2022-10-31T08:51:42.743Z,12.09
2022-10-31T08:54:14.912Z,12.00
2022-10-31T08:56:44.321Z,12.06
2022-10-31T08:59:13.833Z,11.96
2022-10-31T09:01:43.450Z,12.00
2022-10-31T09:04:13.037Z,12.02
2022-10-31T09:06:50.492Z,12.10
2022-10-31T09:09:33.585Z,12.05
2022-10-31T09:12:03.112Z,11.99
2022-10-31T09:14:32.620Z,11.87
2022-10-31T09:17:02.107Z,11.96
2022-10-31T09:19:31.884Z,11.98
2022-10-31T09:22:01.324Z,11.96
2022-10-31T09:24:33.424Z,11.95
2022-10-31T09:27:02.903Z,11.77
2022-10-31T09:29:32.441Z,11.74
2022-10-31T09:32:01.861Z,11.81
2022-10-31T09:34:31.360Z,11.90
2022-10-31T09:37:00.820Z,11.89
2022-10-31T09:39:32.918Z,11.83
2022-10-31T09:42:18.464Z,11.87
2022-10-31T09:44:54.145Z,12.04
2022-10-31T09:47:30.839Z,11.97
2022-10-31T09:50:11.363Z,11.92
2022-10-31T09:52:43.518Z,11.93
2022-10-31T09:55:20.758Z,11.82
2022-10-31T09:57:50.492Z,11.67
2022-10-31T10:00:22.260Z,11.68
2022-10-31T10:02:55.365Z,11.74
2022-10-31T10:05:28.402Z,11.89
2022-10-31T10:08:03.833Z,12.00
2022-10-31T10:10:45.479Z,11.91
2022-10-31T10:13:41.713Z,11.82
2022-10-31T10:16:20.721Z,11.77
2022-10-31T10:19:00.305Z,11.74
2022-10-31T10:21:38.834Z,11.87
2022-10-31T10:24:21.722Z,11.96
2022-10-31T10:26:58.829Z,11.97
2022-10-31T10:29:35.771Z,11.95
2022-10-31T10:32:09.344Z,12.00
2022-10-31T10:34:43.549Z,11.90
2022-10-31T10:37:25.285Z,11.75
2022-10-31T10:39:57.846Z,11.67
2022-10-31T10:42:43.789Z,11.74
2022-10-31T10:45:31.667Z,11.80
2022-10-31T10:48:09.264Z,11.95
2022-10-31T10:50:42.626Z,12.01
2022-10-31T10:53:32.868Z,12.10
2022-10-31T10:56:08.899Z,12.15
2022-10-31T10:58:42.879Z,12.12
2022-10-31T11:04:06.304Z,12.21
2022-10-31T11:06:35.748Z,12.32
2022-10-31T11:09:12.543Z,12.30
2022-10-31T11:11:42.671Z,12.34
2022-10-31T11:14:19.464Z,12.34
2022-10-31T11:16:51.565Z,12.40
2022-10-31T11:19:23.372Z,12.46
2022-10-31T11:21:54.315Z,12.46
2022-10-31T11:24:27.245Z,12.18
2022-10-31T11:27:13.525Z,12.17
2022-10-31T11:29:45.799Z,12.19
2022-10-31T11:32:23.002Z,12.30
2022-10-31T11:34:54.697Z,12.36
2022-10-31T11:37:26.403Z,12.43
2022-10-31T11:39:58.288Z,12.51
2022-10-31T11:42:29.321Z,12.52
2022-10-31T11:45:09.864Z,12.57
2022-10-31T11:47:39.528Z,12.76
2022-10-31T11:50:14.424Z,12.65
2022-10-31T11:52:44.244Z,12.62
2022-10-31T11:55:35.189Z,12.59
2022-10-31T11:58:05.278Z,12.35
2022-10-31T12:00:41.920Z,12.37
2022-10-31T12:03:31.069Z,12.50
2022-10-31T12:06:04.348Z,12.82
2022-10-31T12:08:35.399Z,13.04
2022-10-31T12:11:11.079Z,12.97
2022-10-31T12:13:43.460Z,12.90
2022-10-31T12:16:23.117Z,12.93
2022-10-31T12:19:01.432Z,13.12
2022-10-31T12:21:52.742Z,13.69
2022-10-31T12:24:31.466Z,13.91
2022-10-31T12:27:12.018Z,13.88
2022-10-31T12:30:04.562Z,14.15
2022-10-31T12:32:44.521Z,14.31
2022-10-31T12:35:29.952Z,14.41
2022-10-31T12:38:11.787Z,14.46
2022-10-31T12:40:51.883Z,14.64
2022-10-31T12:43:35.896Z,14.60
2022-10-31T12:46:06.853Z,14.78
2022-10-31T12:49:20.140Z,14.96
2022-10-31T12:51:56.748Z,15.29
2022-10-31T12:54:37.194Z,15.53
2022-10-31T12:57:13.252Z,15.72
2022-10-31T12:59:46.957Z,15.52
2022-10-31T13:02:23.923Z,15.02
2022-10-31T13:04:59.778Z,14.95
2022-10-31T13:07:32.698Z,14.69
2022-10-31T13:10:07.099Z,14.46
2022-10-31T13:12:37.850Z,14.32
2022-10-31T13:15:16.006Z,14.21
2022-10-31T13:17:47.877Z,14.09
2022-10-31T13:20:24.858Z,14.07
2022-10-31T13:22:57.493Z,13.95
2022-10-31T13:25:28.721Z,14.01
2022-10-31T13:28:06.717Z,13.97
2022-10-31T13:30:37.624Z,13.99
2022-10-31T13:33:12.438Z,13.74
2022-10-31T13:35:47.459Z,13.84
2022-10-31T13:38:23.344Z,14.05
2022-10-31T13:40:57.927Z,13.63
2022-10-31T13:43:35.711Z,13.70
2022-10-31T13:46:05.153Z,13.99
2022-10-31T13:48:40.652Z,14.02
2022-10-31T13:51:14.229Z,14.08
2022-10-31T13:53:47.094Z,14.26
2022-10-31T13:56:23.234Z,13.99
2022-10-31T13:59:05.067Z,14.16
2022-10-31T14:01:35.590Z,14.37
2022-10-31T14:04:13.793Z,14.29
2022-10-31T14:06:54.908Z,14.21
2022-10-31T14:09:32.220Z,14.11
2022-10-31T14:12:04.269Z,14.39
2022-10-31T14:14:37.864Z,14.54
2022-10-31T14:17:07.320Z,14.45
2022-10-31T14:19:36.829Z,14.28
2022-10-31T14:22:25.823Z,14.28
2022-10-31T14:24:55.314Z,14.22
2022-10-31T14:27:46.850Z,14.17
2022-10-31T14:30:27.253Z,13.99
2022-10-31T14:32:58.812Z,14.06
2022-10-31T14:35:37.438Z,13.97
2022-10-31T14:38:25.058Z,14.01
2022-10-31T14:41:21.093Z,13.91
2022-10-31T14:44:19.847Z,13.73
2022-10-31T14:46:57.051Z,13.87
2022-10-31T14:49:37.453Z,13.93
2022-10-31T14:52:09.566Z,13.96
2022-10-31T14:54:44.119Z,13.96
2022-10-31T14:57:20.402Z,13.73
2022-10-31T14:59:57.859Z,13.77
2022-10-31T15:02:35.631Z,13.75
2022-10-31T15:05:07.574Z,13.54
2022-10-31T15:07:37.893Z,13.34
2022-10-31T15:10:23.953Z,14.09
2022-10-31T15:12:53.429Z,14.25
2022-10-31T15:15:24.971Z,14.12
2022-10-31T15:17:57.203Z,14.18
2022-10-31T15:20:30.167Z,14.12
2022-10-31T15:23:00.262Z,14.26
2022-10-31T15:25:36.520Z,14.17
2022-10-31T15:28:16.983Z,14.07
2022-10-31T15:30:54.445Z,14.04
2022-10-31T15:33:26.268Z,14.13
2022-10-31T15:36:00.111Z,14.05
2022-10-31T15:38:30.332Z,14.01
2022-10-31T15:41:04.809Z,14.00
2022-10-31T15:43:37.275Z,13.91
2022-10-31T15:46:07.108Z,13.83
2022-10-31T15:48:36.550Z,13.78
2022-10-31T15:51:06.262Z,13.70
2022-10-31T15:53:39.784Z,13.60
2022-10-31T15:56:14.931Z,13.59
2022-10-31T15:58:47.616Z,13.74
2022-10-31T16:01:25.813Z,13.68
2022-10-31T16:04:08.338Z,13.82
2022-10-31T16:06:38.348Z,13.57
2022-10-31T16:09:24.404Z,13.42
2022-10-31T16:11:56.629Z,13.23
2022-10-31T16:14:27.365Z,13.10
2022-10-31T16:16:58.352Z,13.28
2022-10-31T16:19:30.050Z,13.14
2022-10-31T16:22:06.488Z,12.88
2022-10-31T16:24:38.344Z,12.89
2022-10-31T16:27:19.682Z,12.79
2022-10-31T16:29:50.534Z,12.68
2022-10-31T16:32:36.851Z,12.54
2022-10-31T16:35:22.670Z,12.38
2022-10-31T16:37:52.135Z,12.29
2022-10-31T16:40:21.721Z,12.16
2022-10-31T16:42:53.983Z,12.07
2022-10-31T16:45:24.995Z,12.04
2022-10-31T16:47:55.021Z,11.80
2022-10-31T16:50:26.228Z,11.78
2022-10-31T16:55:48.525Z,11.85
2022-10-31T16:58:24.125Z,11.75
2022-10-31T17:00:53.988Z,11.71
2022-10-31T17:03:23.891Z,11.70
2022-10-31T17:05:53.391Z,11.74
2022-10-31T17:08:22.886Z,11.75
2022-10-31T17:10:54.988Z,11.73
2022-10-31T17:13:28.175Z,12.13
2022-10-31T17:15:59.688Z,12.05
2022-10-31T17:18:29.340Z,12.42
2022-10-31T17:20:59.886Z,12.63
2022-10-31T17:23:29.950Z,12.77
2022-10-31T17:25:59.473Z,12.71
2022-10-31T17:28:31.561Z,12.40
2022-10-31T17:31:01.758Z,12.17
2022-10-31T17:33:31.274Z,12.02
2022-10-31T17:36:00.740Z,11.86
2022-10-31T17:38:30.138Z,11.74
2022-10-31T17:40:59.589Z,11.75
2022-10-31T17:43:31.653Z,11.81
2022-10-31T17:46:02.338Z,11.74
2022-10-31T17:48:32.141Z,11.67
2022-10-31T17:51:03.307Z,11.64
2022-10-31T17:53:33.420Z,11.67
2022-10-31T17:56:04.425Z,11.62
2022-10-31T17:58:37.682Z,11.54
2022-10-31T18:01:11.042Z,11.53
2022-10-31T18:03:41.115Z,11.55
2022-10-31T18:06:11.311Z,11.54
2022-10-31T18:08:42.560Z,11.52
2022-10-31T18:11:14.723Z,11.50
2022-10-31T18:13:46.808Z,11.47
2022-10-31T18:16:18.891Z,11.44
2022-10-31T18:18:53.009Z,11.47
2022-10-31T18:21:22.667Z,11.48
2022-10-31T18:23:56.572Z,11.48
2022-10-31T18:26:26.826Z,11.48
2022-10-31T18:28:58.927Z,11.49
2022-10-31T18:31:28.315Z,11.50
2022-10-31T18:33:58.333Z,11.51
2022-10-31T18:36:28.305Z,11.52
2022-10-31T18:38:58.009Z,11.53
2022-10-31T18:41:27.590Z,11.57
2022-10-31T18:44:02.543Z,11.57
2022-10-31T18:46:31.989Z,11.57
2022-10-31T18:49:02.262Z,11.59
2022-10-31T18:51:32.185Z,11.59
2022-10-31T18:54:03.093Z,11.59
2022-10-31T18:56:34.171Z,11.57
2022-10-31T18:59:06.183Z,11.56
2022-10-31T19:01:36.150Z,11.54
2022-10-31T19:04:05.776Z,11.56
2022-10-31T19:06:35.339Z,11.57
2022-10-31T19:09:09.212Z,11.59
2022-10-31T19:11:39.747Z,11.60
2022-10-31T19:14:14.935Z,11.56
2022-10-31T19:16:44.608Z,11.56
2022-10-31T19:19:14.084Z,11.56
2022-10-31T19:21:43.571Z,11.54
2022-10-31T19:24:13.023Z,11.52
2022-10-31T19:26:42.503Z,11.52
2022-10-31T19:29:14.722Z,11.50
2022-10-31T19:31:44.248Z,11.50
2022-10-31T19:34:13.757Z,11.45
2022-10-31T19:36:43.463Z,11.41
2022-10-31T19:39:13.419Z,11.43
2022-10-31T19:41:42.905Z,11.40
2022-10-31T19:44:16.072Z,11.43
2022-10-31T19:46:54.180Z,11.43
2022-10-31T19:49:23.833Z,11.47
2022-10-31T19:51:54.071Z,11.47
2022-10-31T19:54:23.569Z,11.44
2022-10-31T19:56:53.047Z,11.44
2022-10-31T19:59:25.906Z,11.42
2022-10-31T20:01:55.407Z,11.38
2022-10-31T20:04:25.075Z,11.34
2022-10-31T20:06:54.802Z,11.34
2022-10-31T20:09:24.326Z,11.29
2022-10-31T20:11:53.800Z,11.28
2022-10-31T20:14:25.879Z,11.26
2022-10-31T20:16:56.287Z,11.25
2022-10-31T20:19:26.388Z,11.33
2022-10-31T20:21:56.005Z,11.42
2022-10-31T20:24:25.892Z,11.42
2022-10-31T20:26:55.331Z,11.41
2022-10-31T20:29:27.402Z,11.33
2022-10-31T20:31:57.290Z,11.27
2022-10-31T20:34:26.733Z,11.28
2022-10-31T20:36:56.226Z,11.27
2022-10-31T20:39:25.734Z,11.21
2022-10-31T20:41:55.208Z,11.20
2022-10-31T20:44:27.243Z,11.31
2022-10-31T20:46:56.696Z,11.24
2022-10-31T20:49:26.207Z,11.23
2022-10-31T20:51:55.731Z,11.20
2022-10-31T20:54:26.208Z,11.19
2022-10-31T20:56:55.655Z,11.26
2022-10-31T20:59:27.766Z,11.20
2022-10-31T21:01:57.407Z,11.25
2022-10-31T21:04:27.082Z,11.28
2022-10-31T21:06:56.539Z,11.22
2022-10-31T21:09:26.053Z,11.32
2022-10-31T21:11:55.544Z,11.31
2022-10-31T21:14:27.691Z,11.29
2022-10-31T21:16:57.127Z,11.32
2022-10-31T21:19:26.621Z,11.33
2022-10-31T21:21:56.132Z,11.38
2022-10-31T21:24:27.977Z,11.41
2022-10-31T21:26:57.633Z,11.43
2022-10-31T21:29:29.716Z,11.43
2022-10-31T21:31:59.174Z,11.47
2022-10-31T21:34:28.836Z,11.52
2022-10-31T21:36:58.314Z,11.59
2022-10-31T21:39:27.876Z,11.63
2022-10-31T21:41:57.419Z,11.67
2022-10-31T21:44:29.521Z,11.72
2022-10-31T21:46:58.966Z,11.74
2022-10-31T21:49:28.493Z,11.75
2022-10-31T21:51:58.028Z,11.71
2022-10-31T21:54:30.401Z,11.78
2022-10-31T21:57:00.993Z,11.69
2022-10-31T21:59:33.327Z,11.71
2022-10-31T22:02:02.863Z,11.68
2022-10-31T22:04:32.393Z,11.65
2022-10-31T22:07:01.880Z,11.75
2022-10-31T22:09:31.463Z,11.71
2022-10-31T22:12:01.355Z,11.72
2022-10-31T22:14:33.537Z,11.69
2022-10-31T22:17:03.100Z,11.61
2022-10-31T22:19:32.636Z,11.61
2022-10-31T22:22:02.103Z,11.61
2022-10-31T22:24:31.664Z,11.69
2022-10-31T22:27:01.094Z,11.64
2022-10-31T22:29:35.175Z,11.73
2022-10-31T22:32:04.622Z,11.70
2022-10-31T22:34:34.154Z,11.66
2022-10-31T22:37:03.758Z,11.61
2022-10-31T22:39:33.458Z,11.55
2022-10-31T22:42:02.931Z,11.52
2022-10-31T22:44:34.995Z,11.47
2022-10-31T22:47:04.436Z,11.64
2022-10-31T22:49:33.920Z,11.66
2022-10-31T22:52:03.517Z,11.69
2022-10-31T22:54:34.282Z,11.69
2022-10-31T22:57:03.936Z,11.66
2022-10-31T22:59:35.995Z,11.64
2022-10-31T23:02:08.577Z,11.69
2022-10-31T23:04:39.708Z,11.65
2022-10-31T23:07:12.332Z,11.57
2022-10-31T23:09:44.119Z,11.63
2022-10-31T23:12:26.148Z,11.61
2022-10-31T23:14:58.218Z,11.67
2022-10-31T23:17:27.673Z,11.60
2022-10-31T23:19:57.188Z,11.58
2022-10-31T23:22:26.693Z,11.61
2022-10-31T23:24:56.176Z,11.55
2022-10-31T23:27:24.326Z,11.55
2022-10-31T23:29:55.350Z,11.57
2022-10-31T23:32:29.485Z,11.51
2022-10-31T23:35:00.384Z,11.48
2022-10-31T23:37:33.479Z,11.49
2022-10-31T23:40:03.181Z,11.48
2022-10-31T23:42:32.649Z,11.47
2022-10-31T23:45:02.129Z,11.46
2022-10-31T23:47:34.199Z,11.46
2022-10-31T23:50:03.686Z,11.53
2022-10-31T23:52:33.148Z,11.48
2022-10-31T23:55:02.733Z,11.47
2022-10-31T23:57:32.192Z,11.45
